sensor_id;sensor_type;location;lat;lon;timestamp;P1;durP1;ratioP1;P2;durP2;ratioP2
55537;SDS011;41383;51.418;7.286;2023-02-15T00:01:20;26.27;;;13.30;;
55537;SDS011;41383;51.418;7.286;2023-02-15T00:03:47;24.60;;;12.97;;
55537;SDS011;41383;51.418;7.286;2023-02-15T00:06:13;27.45;;;14.88;;
55537;SDS011;41383;51.418;7.286;2023-02-15T00:08:39;27.08;;;12.75;;
55537;SDS011;41383;51.418;7.286;2023-02-15T00:11:08;32.20;;;13.55;;
55537;SDS011;41383;51.418;7.286;2023-02-15T00:13:35;22.83;;;12.88;;
55537;SDS011;41383;51.418;7.286;2023-02-15T00:16:19;27.30;;;12.95;;
55537;SDS011;41383;51.418;7.286;2023-02-15T00:18:44;25.13;;;13.77;;
55537;SDS011;41383;51.418;7.286;2023-02-15T00:21:09;27.77;;;13.83;;
55537;SDS011;41383;51.418;7.286;2023-02-15T00:23:35;31.40;;;14.45;;
55537;SDS011;41383;51.418;7.286;2023-02-15T00:26:08;24.63;;;14.02;;
55537;SDS011;41383;51.418;7.286;2023-02-15T00:33:36;25.80;;;12.82;;
55537;SDS011;41383;51.418;7.286;2023-02-15T00:36:03;23.90;;;13.23;;
55537;SDS011;41383;51.418;7.286;2023-02-15T00:38:30;25.80;;;13.88;;
55537;SDS011;41383;51.418;7.286;2023-02-15T00:40:56;25.52;;;13.38;;
55537;SDS011;41383;51.418;7.286;2023-02-15T00:43:22;24.00;;;12.75;;
55537;SDS011;41383;51.418;7.286;2023-02-15T00:45:48;32.03;;;15.70;;
55537;SDS011;41383;51.418;7.286;2023-02-15T00:48:13;23.77;;;12.77;;
55537;SDS011;41383;51.418;7.286;2023-02-15T00:50:38;27.05;;;13.65;;
55537;SDS011;41383;51.418;7.286;2023-02-15T00:53:04;29.33;;;13.40;;
55537;SDS011;41383;51.418;7.286;2023-02-15T00:55:29;24.05;;;14.80;;
55537;SDS011;41383;51.418;7.286;2023-02-15T00:57:55;28.27;;;14.90;;
55537;SDS011;41383;51.418;7.286;2023-02-15T01:00:20;23.95;;;13.98;;
55537;SDS011;41383;51.418;7.286;2023-02-15T01:02:45;29.60;;;14.30;;
55537;SDS011;41383;51.418;7.286;2023-02-15T01:05:11;26.77;;;14.90;;
55537;SDS011;41383;51.418;7.286;2023-02-15T01:07:36;32.58;;;15.80;;
55537;SDS011;41383;51.418;7.286;2023-02-15T01:10:01;28.50;;;15.57;;
55537;SDS011;41383;51.418;7.286;2023-02-15T01:12:27;29.20;;;15.82;;
55537;SDS011;41383;51.418;7.286;2023-02-15T01:14:52;31.70;;;15.03;;
55537;SDS011;41383;51.418;7.286;2023-02-15T01:17:17;25.33;;;15.17;;
55537;SDS011;41383;51.418;7.286;2023-02-15T01:19:43;24.73;;;15.10;;
55537;SDS011;41383;51.418;7.286;2023-02-15T01:22:08;26.92;;;15.80;;
55537;SDS011;41383;51.418;7.286;2023-02-15T01:24:33;26.93;;;13.90;;
55537;SDS011;41383;51.418;7.286;2023-02-15T01:26:58;27.17;;;14.93;;
55537;SDS011;41383;51.418;7.286;2023-02-15T01:29:24;25.15;;;13.20;;
55537;SDS011;41383;51.418;7.286;2023-02-15T01:31:49;33.23;;;19.00;;
55537;SDS011;41383;51.418;7.286;2023-02-15T01:34:14;23.60;;;13.38;;
55537;SDS011;41383;51.418;7.286;2023-02-15T01:36:39;26.73;;;13.90;;
55537;SDS011;41383;51.418;7.286;2023-02-15T01:39:05;29.98;;;17.20;;
55537;SDS011;41383;51.418;7.286;2023-02-15T01:41:32;19.52;;;12.38;;
55537;SDS011;41383;51.418;7.286;2023-02-15T01:43:58;23.85;;;14.65;;
55537;SDS011;41383;51.418;7.286;2023-02-15T01:46:38;31.45;;;15.25;;
55537;SDS011;41383;51.418;7.286;2023-02-15T01:49:11;27.45;;;14.15;;
55537;SDS011;41383;51.418;7.286;2023-02-15T01:51:40;31.48;;;16.23;;
55537;SDS011;41383;51.418;7.286;2023-02-15T01:54:09;26.20;;;14.30;;
55537;SDS011;41383;51.418;7.286;2023-02-15T01:56:46;26.60;;;14.63;;
55537;SDS011;41383;51.418;7.286;2023-02-15T01:59:15;29.27;;;15.13;;
55537;SDS011;41383;51.418;7.286;2023-02-15T02:01:44;38.13;;;15.68;;
55537;SDS011;41383;51.418;7.286;2023-02-15T02:04:13;33.45;;;16.77;;
55537;SDS011;41383;51.418;7.286;2023-02-15T02:06:42;27.83;;;13.25;;
55537;SDS011;41383;51.418;7.286;2023-02-15T02:09:11;32.72;;;16.40;;
55537;SDS011;41383;51.418;7.286;2023-02-15T02:11:37;31.15;;;17.42;;
55537;SDS011;41383;51.418;7.286;2023-02-15T02:14:05;26.10;;;14.95;;
55537;SDS011;41383;51.418;7.286;2023-02-15T02:17:14;25.65;;;14.07;;
55537;SDS011;41383;51.418;7.286;2023-02-15T02:41:50;27.48;;;14.18;;
55537;SDS011;41383;51.418;7.286;2023-02-15T02:47:22;28.40;;;14.35;;
55537;SDS011;41383;51.418;7.286;2023-02-15T02:49:52;23.95;;;13.23;;
55537;SDS011;41383;51.418;7.286;2023-02-15T02:52:37;29.88;;;15.70;;
55537;SDS011;41383;51.418;7.286;2023-02-15T02:57:55;27.67;;;16.92;;
55537;SDS011;41383;51.418;7.286;2023-02-15T03:00:25;29.38;;;13.85;;
55537;SDS011;41383;51.418;7.286;2023-02-15T03:02:54;25.05;;;13.60;;
55537;SDS011;41383;51.418;7.286;2023-02-15T03:05:29;27.50;;;15.20;;
55537;SDS011;41383;51.418;7.286;2023-02-15T03:07:56;28.48;;;15.02;;
55537;SDS011;41383;51.418;7.286;2023-02-15T03:10:22;30.30;;;15.75;;
55537;SDS011;41383;51.418;7.286;2023-02-15T03:12:49;30.45;;;14.90;;
55537;SDS011;41383;51.418;7.286;2023-02-15T03:15:20;27.75;;;13.75;;
55537;SDS011;41383;51.418;7.286;2023-02-15T03:17:49;26.80;;;14.10;;
55537;SDS011;41383;51.418;7.286;2023-02-15T03:20:32;30.55;;;15.43;;
55537;SDS011;41383;51.418;7.286;2023-02-15T03:23:02;29.55;;;14.57;;
55537;SDS011;41383;51.418;7.286;2023-02-15T03:25:34;28.98;;;14.90;;
55537;SDS011;41383;51.418;7.286;2023-02-15T03:28:07;25.25;;;13.57;;
55537;SDS011;41383;51.418;7.286;2023-02-15T03:30:36;33.92;;;16.98;;
55537;SDS011;41383;51.418;7.286;2023-02-15T03:33:04;28.73;;;15.80;;
55537;SDS011;41383;51.418;7.286;2023-02-15T03:38:13;28.02;;;14.10;;
55537;SDS011;41383;51.418;7.286;2023-02-15T03:40:44;30.35;;;16.17;;
55537;SDS011;41383;51.418;7.286;2023-02-15T03:43:33;28.42;;;16.25;;
55537;SDS011;41383;51.418;7.286;2023-02-15T03:46:05;28.70;;;14.95;;
55537;SDS011;41383;51.418;7.286;2023-02-15T03:48:39;35.97;;;18.65;;
55537;SDS011;41383;51.418;7.286;2023-02-15T03:51:10;29.00;;;16.42;;
55537;SDS011;41383;51.418;7.286;2023-02-15T03:53:58;27.02;;;14.80;;
55537;SDS011;41383;51.418;7.286;2023-02-15T03:56:25;31.17;;;18.67;;
55537;SDS011;41383;51.418;7.286;2023-02-15T03:58:50;28.10;;;15.85;;
55537;SDS011;41383;51.418;7.286;2023-02-15T04:01:35;27.88;;;15.07;;
55537;SDS011;41383;51.418;7.286;2023-02-15T04:04:45;35.00;;;16.67;;
55537;SDS011;41383;51.418;7.286;2023-02-15T04:07:11;27.48;;;15.23;;
55537;SDS011;41383;51.418;7.286;2023-02-15T04:09:36;27.83;;;15.55;;
55537;SDS011;41383;51.418;7.286;2023-02-15T04:12:20;29.60;;;16.25;;
55537;SDS011;41383;51.418;7.286;2023-02-15T04:14:46;31.55;;;15.68;;
55537;SDS011;41383;51.418;7.286;2023-02-15T04:17:29;32.08;;;15.45;;
55537;SDS011;41383;51.418;7.286;2023-02-15T04:19:55;29.98;;;16.75;;
55537;SDS011;41383;51.418;7.286;2023-02-15T04:22:39;29.92;;;15.45;;
55537;SDS011;41383;51.418;7.286;2023-02-15T04:25:23;27.73;;;16.33;;
55537;SDS011;41383;51.418;7.286;2023-02-15T04:27:50;29.15;;;14.73;;
55537;SDS011;41383;51.418;7.286;2023-02-15T04:30:18;32.25;;;16.70;;
55537;SDS011;41383;51.418;7.286;2023-02-15T04:32:45;32.65;;;16.65;;
55537;SDS011;41383;51.418;7.286;2023-02-15T04:35:12;29.35;;;15.88;;
55537;SDS011;41383;51.418;7.286;2023-02-15T04:37:38;32.17;;;15.30;;
55537;SDS011;41383;51.418;7.286;2023-02-15T04:40:04;37.47;;;14.90;;
55537;SDS011;41383;51.418;7.286;2023-02-15T04:42:31;28.45;;;17.58;;
55537;SDS011;41383;51.418;7.286;2023-02-15T04:44:56;28.38;;;15.52;;
55537;SDS011;41383;51.418;7.286;2023-02-15T04:47:21;34.42;;;17.10;;
55537;SDS011;41383;51.418;7.286;2023-02-15T04:49:47;31.73;;;15.55;;
55537;SDS011;41383;51.418;7.286;2023-02-15T04:52:12;32.40;;;17.30;;
55537;SDS011;41383;51.418;7.286;2023-02-15T04:54:38;26.52;;;13.95;;
55537;SDS011;41383;51.418;7.286;2023-02-15T04:57:03;28.58;;;15.50;;
55537;SDS011;41383;51.418;7.286;2023-02-15T04:59:29;29.15;;;14.98;;
55537;SDS011;41383;51.418;7.286;2023-02-15T05:01:54;31.50;;;17.13;;
55537;SDS011;41383;51.418;7.286;2023-02-15T05:04:19;31.43;;;15.07;;
55537;SDS011;41383;51.418;7.286;2023-02-15T05:06:44;35.95;;;19.20;;
55537;SDS011;41383;51.418;7.286;2023-02-15T05:09:10;29.13;;;14.95;;
55537;SDS011;41383;51.418;7.286;2023-02-15T05:11:36;31.40;;;17.77;;
55537;SDS011;41383;51.418;7.286;2023-02-15T05:14:02;23.23;;;14.10;;
55537;SDS011;41383;51.418;7.286;2023-02-15T05:16:27;30.33;;;16.40;;
55537;SDS011;41383;51.418;7.286;2023-02-15T05:18:52;24.05;;;14.18;;
55537;SDS011;41383;51.418;7.286;2023-02-15T05:21:18;29.67;;;14.82;;
55537;SDS011;41383;51.418;7.286;2023-02-15T05:23:43;30.58;;;17.17;;
55537;SDS011;41383;51.418;7.286;2023-02-15T05:26:10;29.77;;;17.70;;
55537;SDS011;41383;51.418;7.286;2023-02-15T05:28:55;29.83;;;14.93;;
55537;SDS011;41383;51.418;7.286;2023-02-15T05:31:21;24.92;;;14.60;;
55537;SDS011;41383;51.418;7.286;2023-02-15T05:33:46;29.40;;;15.98;;
55537;SDS011;41383;51.418;7.286;2023-02-15T05:36:11;27.35;;;14.82;;
55537;SDS011;41383;51.418;7.286;2023-02-15T05:38:37;26.90;;;15.13;;
55537;SDS011;41383;51.418;7.286;2023-02-15T05:41:07;26.45;;;16.65;;
55537;SDS011;41383;51.418;7.286;2023-02-15T05:43:33;30.50;;;17.77;;
55537;SDS011;41383;51.418;7.286;2023-02-15T05:45:59;30.92;;;15.35;;
55537;SDS011;41383;51.418;7.286;2023-02-15T05:48:25;34.92;;;18.60;;
55537;SDS011;41383;51.418;7.286;2023-02-15T05:50:58;26.92;;;15.57;;
55537;SDS011;41383;51.418;7.286;2023-02-15T05:53:29;30.77;;;15.68;;
55537;SDS011;41383;51.418;7.286;2023-02-15T05:55:56;33.92;;;14.93;;
55537;SDS011;41383;51.418;7.286;2023-02-15T05:58:27;28.10;;;17.40;;
55537;SDS011;41383;51.418;7.286;2023-02-15T06:00:53;32.50;;;14.07;;
55537;SDS011;41383;51.418;7.286;2023-02-15T06:03:19;30.20;;;15.18;;
55537;SDS011;41383;51.418;7.286;2023-02-15T06:05:44;27.63;;;14.63;;
55537;SDS011;41383;51.418;7.286;2023-02-15T06:08:09;31.58;;;15.95;;
55537;SDS011;41383;51.418;7.286;2023-02-15T06:10:35;32.60;;;16.40;;
55537;SDS011;41383;51.418;7.286;2023-02-15T06:13:00;26.05;;;14.30;;
55537;SDS011;41383;51.418;7.286;2023-02-15T06:15:25;28.63;;;14.98;;
55537;SDS011;41383;51.418;7.286;2023-02-15T06:17:51;30.60;;;15.30;;
55537;SDS011;41383;51.418;7.286;2023-02-15T06:20:16;31.45;;;16.30;;
55537;SDS011;41383;51.418;7.286;2023-02-15T06:22:42;30.65;;;14.70;;
55537;SDS011;41383;51.418;7.286;2023-02-15T06:25:07;25.13;;;14.80;;
55537;SDS011;41383;51.418;7.286;2023-02-15T06:27:35;30.50;;;16.80;;
55537;SDS011;41383;51.418;7.286;2023-02-15T06:30:00;29.75;;;16.58;;
55537;SDS011;41383;51.418;7.286;2023-02-15T06:32:26;28.25;;;16.27;;
55537;SDS011;41383;51.418;7.286;2023-02-15T06:34:51;32.60;;;16.13;;
55537;SDS011;41383;51.418;7.286;2023-02-15T06:37:16;30.77;;;15.73;;
55537;SDS011;41383;51.418;7.286;2023-02-15T06:39:41;28.27;;;17.50;;
55537;SDS011;41383;51.418;7.286;2023-02-15T06:42:07;32.72;;;15.45;;
55537;SDS011;41383;51.418;7.286;2023-02-15T06:44:33;24.27;;;13.97;;
55537;SDS011;41383;51.418;7.286;2023-02-15T06:46:58;29.27;;;14.60;;
55537;SDS011;41383;51.418;7.286;2023-02-15T06:49:23;24.63;;;13.87;;
55537;SDS011;41383;51.418;7.286;2023-02-15T06:51:48;35.13;;;16.13;;
55537;SDS011;41383;51.418;7.286;2023-02-15T06:54:14;30.97;;;15.83;;
55537;SDS011;41383;51.418;7.286;2023-02-15T06:56:39;33.77;;;15.67;;
55537;SDS011;41383;51.418;7.286;2023-02-15T06:59:04;26.42;;;13.18;;
55537;SDS011;41383;51.418;7.286;2023-02-15T07:01:30;31.48;;;16.73;;
55537;SDS011;41383;51.418;7.286;2023-02-15T07:03:55;30.20;;;14.43;;
55537;SDS011;41383;51.418;7.286;2023-02-15T07:06:20;28.13;;;14.68;;
55537;SDS011;41383;51.418;7.286;2023-02-15T07:08:45;28.50;;;15.43;;
55537;SDS011;41383;51.418;7.286;2023-02-15T07:11:11;30.63;;;14.88;;
55537;SDS011;41383;51.418;7.286;2023-02-15T07:13:55;28.73;;;14.30;;
55537;SDS011;41383;51.418;7.286;2023-02-15T07:16:20;23.42;;;12.75;;
55537;SDS011;41383;51.418;7.286;2023-02-15T07:18:46;23.98;;;14.38;;
55537;SDS011;41383;51.418;7.286;2023-02-15T07:21:11;29.90;;;15.38;;
55537;SDS011;41383;51.418;7.286;2023-02-15T07:23:37;31.88;;;14.20;;
55537;SDS011;41383;51.418;7.286;2023-02-15T07:26:04;28.20;;;13.98;;
55537;SDS011;41383;51.418;7.286;2023-02-15T07:28:30;32.45;;;16.73;;
55537;SDS011;41383;51.418;7.286;2023-02-15T07:30:56;29.20;;;15.68;;
55537;SDS011;41383;51.418;7.286;2023-02-15T07:33:22;24.33;;;13.88;;
55537;SDS011;41383;51.418;7.286;2023-02-15T07:35:58;26.42;;;14.70;;
55537;SDS011;41383;51.418;7.286;2023-02-15T07:38:26;29.98;;;15.13;;
55537;SDS011;41383;51.418;7.286;2023-02-15T07:40:57;27.60;;;14.65;;
55537;SDS011;41383;51.418;7.286;2023-02-15T07:43:22;30.83;;;14.52;;
55537;SDS011;41383;51.418;7.286;2023-02-15T07:45:48;28.88;;;14.23;;
55537;SDS011;41383;51.418;7.286;2023-02-15T07:48:13;27.20;;;15.07;;
55537;SDS011;41383;51.418;7.286;2023-02-15T07:50:38;23.10;;;13.88;;
55537;SDS011;41383;51.418;7.286;2023-02-15T07:53:03;33.57;;;15.13;;
55537;SDS011;41383;51.418;7.286;2023-02-15T07:55:29;27.58;;;16.40;;
55537;SDS011;41383;51.418;7.286;2023-02-15T07:57:54;24.83;;;13.32;;
55537;SDS011;41383;51.418;7.286;2023-02-15T08:00:20;25.45;;;15.18;;
55537;SDS011;41383;51.418;7.286;2023-02-15T08:02:50;29.15;;;16.45;;
55537;SDS011;41383;51.418;7.286;2023-02-15T08:05:37;22.92;;;12.63;;
55537;SDS011;41383;51.418;7.286;2023-02-15T08:08:02;26.65;;;15.27;;
55537;SDS011;41383;51.418;7.286;2023-02-15T08:10:28;27.98;;;13.70;;
55537;SDS011;41383;51.418;7.286;2023-02-15T08:13:11;25.70;;;12.77;;
55537;SDS011;41383;51.418;7.286;2023-02-15T08:15:37;27.77;;;14.50;;
55537;SDS011;41383;51.418;7.286;2023-02-15T08:18:02;34.73;;;13.70;;
55537;SDS011;41383;51.418;7.286;2023-02-15T08:20:27;24.45;;;12.82;;
55537;SDS011;41383;51.418;7.286;2023-02-15T08:22:53;31.10;;;14.73;;
55537;SDS011;41383;51.418;7.286;2023-02-15T08:25:18;26.20;;;14.00;;
55537;SDS011;41383;51.418;7.286;2023-02-15T08:27:43;27.43;;;11.43;;
55537;SDS011;41383;51.418;7.286;2023-02-15T08:30:09;28.77;;;13.27;;
55537;SDS011;41383;51.418;7.286;2023-02-15T08:32:34;21.98;;;11.98;;
55537;SDS011;41383;51.418;7.286;2023-02-15T08:34:59;24.30;;;14.47;;
55537;SDS011;41383;51.418;7.286;2023-02-15T08:37:25;28.07;;;13.63;;
55537;SDS011;41383;51.418;7.286;2023-02-15T08:39:50;29.35;;;14.13;;
55537;SDS011;41383;51.418;7.286;2023-02-15T08:42:16;21.75;;;13.65;;
55537;SDS011;41383;51.418;7.286;2023-02-15T08:44:42;30.98;;;13.88;;
55537;SDS011;41383;51.418;7.286;2023-02-15T08:47:07;24.42;;;13.25;;
55537;SDS011;41383;51.418;7.286;2023-02-15T08:49:32;23.03;;;13.50;;
55537;SDS011;41383;51.418;7.286;2023-02-15T08:51:57;23.23;;;11.07;;
55537;SDS011;41383;51.418;7.286;2023-02-15T08:54:23;23.08;;;12.85;;
55537;SDS011;41383;51.418;7.286;2023-02-15T08:56:48;20.08;;;10.38;;
55537;SDS011;41383;51.418;7.286;2023-02-15T08:59:15;21.23;;;11.20;;
55537;SDS011;41383;51.418;7.286;2023-02-15T09:01:42;19.08;;;11.25;;
55537;SDS011;41383;51.418;7.286;2023-02-15T09:04:07;24.73;;;11.80;;
55537;SDS011;41383;51.418;7.286;2023-02-15T09:06:33;19.35;;;11.50;;
55537;SDS011;41383;51.418;7.286;2023-02-15T09:08:59;20.75;;;12.57;;
55537;SDS011;41383;51.418;7.286;2023-02-15T09:11:25;25.10;;;11.18;;
55537;SDS011;41383;51.418;7.286;2023-02-15T09:13:59;18.58;;;11.07;;
55537;SDS011;41383;51.418;7.286;2023-02-15T09:16:27;24.58;;;11.05;;
55537;SDS011;41383;51.418;7.286;2023-02-15T09:18:54;17.02;;;9.07;;
55537;SDS011;41383;51.418;7.286;2023-02-15T09:21:22;30.35;;;13.63;;
55537;SDS011;41383;51.418;7.286;2023-02-15T09:23:49;22.35;;;11.48;;
55537;SDS011;41383;51.418;7.286;2023-02-15T09:26:17;22.60;;;10.90;;
55537;SDS011;41383;51.418;7.286;2023-02-15T09:28:45;21.00;;;10.63;;
55537;SDS011;41383;51.418;7.286;2023-02-15T09:31:15;23.08;;;11.15;;
55537;SDS011;41383;51.418;7.286;2023-02-15T09:33:43;22.98;;;11.60;;
55537;SDS011;41383;51.418;7.286;2023-02-15T09:36:17;34.25;;;13.27;;
55537;SDS011;41383;51.418;7.286;2023-02-15T09:38:44;24.65;;;12.38;;
55537;SDS011;41383;51.418;7.286;2023-02-15T09:44:17;25.98;;;12.88;;
55537;SDS011;41383;51.418;7.286;2023-02-15T09:55:11;23.45;;;12.88;;
55537;SDS011;41383;51.418;7.286;2023-02-15T10:01:01;21.98;;;11.93;;
55537;SDS011;41383;51.418;7.286;2023-02-15T10:03:47;19.33;;;10.35;;
55537;SDS011;41383;51.418;7.286;2023-02-15T10:09:06;20.58;;;9.32;;
55537;SDS011;41383;51.418;7.286;2023-02-15T10:14:18;26.90;;;11.70;;
55537;SDS011;41383;51.418;7.286;2023-02-15T10:19:58;18.63;;;9.38;;
55537;SDS011;41383;51.418;7.286;2023-02-15T10:25:36;18.27;;;9.23;;
55537;SDS011;41383;51.418;7.286;2023-02-15T10:28:17;19.67;;;9.70;;
55537;SDS011;41383;51.418;7.286;2023-02-15T10:30:46;21.05;;;10.57;;
55537;SDS011;41383;51.418;7.286;2023-02-15T10:36:04;21.27;;;9.45;;
55537;SDS011;41383;51.418;7.286;2023-02-15T10:58:17;18.05;;;8.25;;
55537;SDS011;41383;51.418;7.286;2023-02-15T11:00:52;15.13;;;8.02;;
55537;SDS011;41383;51.418;7.286;2023-02-15T11:08:31;19.77;;;7.78;;
55537;SDS011;41383;51.418;7.286;2023-02-15T11:11:01;25.13;;;8.57;;
55537;SDS011;41383;51.418;7.286;2023-02-15T11:13:32;17.08;;;9.38;;
55537;SDS011;41383;51.418;7.286;2023-02-15T11:16:05;18.65;;;9.40;;
55537;SDS011;41383;51.418;7.286;2023-02-15T11:18:38;15.68;;;7.28;;
55537;SDS011;41383;51.418;7.286;2023-02-15T11:22:09;15.65;;;7.07;;
55537;SDS011;41383;51.418;7.286;2023-02-15T11:24:10;16.92;;;9.10;;
55537;SDS011;41383;51.418;7.286;2023-02-15T11:26:43;16.77;;;7.95;;
55537;SDS011;41383;51.418;7.286;2023-02-15T11:29:22;15.25;;;7.95;;
55537;SDS011;41383;51.418;7.286;2023-02-15T11:32:02;16.23;;;7.97;;
55537;SDS011;41383;51.418;7.286;2023-02-15T11:34:40;16.52;;;8.05;;
55537;SDS011;41383;51.418;7.286;2023-02-15T11:37:16;22.75;;;8.52;;
55537;SDS011;41383;51.418;7.286;2023-02-15T11:39:44;15.27;;;7.68;;
55537;SDS011;41383;51.418;7.286;2023-02-15T11:42:16;15.80;;;8.02;;
55537;SDS011;41383;51.418;7.286;2023-02-15T11:47:42;17.33;;;6.97;;
55537;SDS011;41383;51.418;7.286;2023-02-15T11:50:13;18.33;;;7.88;;
55537;SDS011;41383;51.418;7.286;2023-02-15T11:52:42;14.98;;;8.25;;
55537;SDS011;41383;51.418;7.286;2023-02-15T11:55:12;15.18;;;6.45;;
55537;SDS011;41383;51.418;7.286;2023-02-15T11:57:42;16.00;;;7.82;;
55537;SDS011;41383;51.418;7.286;2023-02-15T12:00:32;15.00;;;7.72;;
55537;SDS011;41383;51.418;7.286;2023-02-15T12:03:05;19.42;;;7.85;;
55537;SDS011;41383;51.418;7.286;2023-02-15T12:05:46;18.02;;;8.82;;
55537;SDS011;41383;51.418;7.286;2023-02-15T12:08:21;15.38;;;7.90;;
55537;SDS011;41383;51.418;7.286;2023-02-15T12:10:57;15.75;;;6.43;;
55537;SDS011;41383;51.418;7.286;2023-02-15T12:13:26;17.75;;;6.78;;
55537;SDS011;41383;51.418;7.286;2023-02-15T12:15:52;15.77;;;7.70;;
55537;SDS011;41383;51.418;7.286;2023-02-15T12:18:34;16.80;;;8.25;;
55537;SDS011;41383;51.418;7.286;2023-02-15T12:21:05;14.40;;;6.70;;
55537;SDS011;41383;51.418;7.286;2023-02-15T12:23:46;21.15;;;9.15;;
55537;SDS011;41383;51.418;7.286;2023-02-15T12:26:13;15.45;;;8.00;;
55537;SDS011;41383;51.418;7.286;2023-02-15T12:28:43;18.83;;;8.65;;
55537;SDS011;41383;51.418;7.286;2023-02-15T12:31:27;16.30;;;7.80;;
55537;SDS011;41383;51.418;7.286;2023-02-15T12:33:57;17.30;;;8.43;;
55537;SDS011;41383;51.418;7.286;2023-02-15T12:36:26;17.33;;;8.98;;
55537;SDS011;41383;51.418;7.286;2023-02-15T12:44:29;14.07;;;7.97;;
55537;SDS011;41383;51.418;7.286;2023-02-15T12:46:59;15.38;;;7.40;;
55537;SDS011;41383;51.418;7.286;2023-02-15T12:49:30;14.82;;;6.97;;
55537;SDS011;41383;51.418;7.286;2023-02-15T12:51:58;15.07;;;7.72;;
55537;SDS011;41383;51.418;7.286;2023-02-15T12:54:34;14.80;;;6.90;;
55537;SDS011;41383;51.418;7.286;2023-02-15T12:59:51;13.82;;;7.65;;
55537;SDS011;41383;51.418;7.286;2023-02-15T13:03:04;16.05;;;7.35;;
55537;SDS011;41383;51.418;7.286;2023-02-15T13:05:26;22.15;;;8.70;;
55537;SDS011;41383;51.418;7.286;2023-02-15T13:08:04;17.02;;;8.23;;
55537;SDS011;41383;51.418;7.286;2023-02-15T13:10:35;18.45;;;8.20;;
55537;SDS011;41383;51.418;7.286;2023-02-15T13:13:02;16.73;;;7.47;;
55537;SDS011;41383;51.418;7.286;2023-02-15T13:15:36;16.25;;;7.60;;
55537;SDS011;41383;51.418;7.286;2023-02-15T13:18:05;18.52;;;6.88;;
55537;SDS011;41383;51.418;7.286;2023-02-15T13:20:37;18.92;;;7.93;;
55537;SDS011;41383;51.418;7.286;2023-02-15T13:23:06;18.92;;;7.72;;
55537;SDS011;41383;51.418;7.286;2023-02-15T13:25:45;18.77;;;7.40;;
55537;SDS011;41383;51.418;7.286;2023-02-15T13:28:15;14.13;;;7.78;;
55537;SDS011;41383;51.418;7.286;2023-02-15T13:30:43;13.18;;;7.68;;
55537;SDS011;41383;51.418;7.286;2023-02-15T13:33:31;15.73;;;8.50;;
55537;SDS011;41383;51.418;7.286;2023-02-15T13:41:52;17.15;;;8.70;;
55537;SDS011;41383;51.418;7.286;2023-02-15T13:44:26;16.90;;;7.45;;
55537;SDS011;41383;51.418;7.286;2023-02-15T13:47:03;19.08;;;8.95;;
55537;SDS011;41383;51.418;7.286;2023-02-15T13:52:24;16.88;;;7.97;;
55537;SDS011;41383;51.418;7.286;2023-02-15T13:54:55;17.25;;;8.63;;
55537;SDS011;41383;51.418;7.286;2023-02-15T14:06:25;17.70;;;7.78;;
55537;SDS011;41383;51.418;7.286;2023-02-15T14:11:50;12.65;;;7.70;;
55537;SDS011;41383;51.418;7.286;2023-02-15T14:26:50;14.18;;;6.93;;
55537;SDS011;41383;51.418;7.286;2023-02-15T14:32:16;12.57;;;5.60;;
55537;SDS011;41383;51.418;7.286;2023-02-15T14:37:16;19.55;;;7.10;;
55537;SDS011;41383;51.418;7.286;2023-02-15T14:39:52;19.35;;;6.88;;
55537;SDS011;41383;51.418;7.286;2023-02-15T14:42:57;16.38;;;7.00;;
55537;SDS011;41383;51.418;7.286;2023-02-15T14:45:40;14.18;;;7.45;;
55537;SDS011;41383;51.418;7.286;2023-02-15T14:51:03;14.77;;;5.97;;
55537;SDS011;41383;51.418;7.286;2023-02-15T14:53:36;19.58;;;8.05;;
55537;SDS011;41383;51.418;7.286;2023-02-15T15:01:31;18.17;;;7.18;;
55537;SDS011;41383;51.418;7.286;2023-02-15T15:03:59;19.58;;;7.55;;
55537;SDS011;41383;51.418;7.286;2023-02-15T15:06:29;13.95;;;7.32;;
55537;SDS011;41383;51.418;7.286;2023-02-15T15:09:05;13.82;;;6.20;;
55537;SDS011;41383;51.418;7.286;2023-02-15T15:11:48;14.20;;;7.90;;
55537;SDS011;41383;51.418;7.286;2023-02-15T15:14:36;19.25;;;8.18;;
55537;SDS011;41383;51.418;7.286;2023-02-15T15:17:01;15.32;;;7.20;;
55537;SDS011;41383;51.418;7.286;2023-02-15T15:22:21;20.23;;;7.73;;
55537;SDS011;41383;51.418;7.286;2023-02-15T15:24:52;14.88;;;9.05;;
55537;SDS011;41383;51.418;7.286;2023-02-15T15:27:41;14.57;;;6.97;;
55537;SDS011;41383;51.418;7.286;2023-02-15T15:38:05;18.08;;;8.57;;
55537;SDS011;41383;51.418;7.286;2023-02-15T15:40:41;20.55;;;8.48;;
55537;SDS011;41383;51.418;7.286;2023-02-15T15:43:24;23.33;;;9.73;;
55537;SDS011;41383;51.418;7.286;2023-02-15T15:49:12;19.25;;;9.15;;
55537;SDS011;41383;51.418;7.286;2023-02-15T15:51:41;17.50;;;7.55;;
55537;SDS011;41383;51.418;7.286;2023-02-15T15:54:15;17.38;;;9.13;;
55537;SDS011;41383;51.418;7.286;2023-02-15T15:56:47;20.08;;;8.98;;
55537;SDS011;41383;51.418;7.286;2023-02-15T15:59:22;12.73;;;7.43;;
55537;SDS011;41383;51.418;7.286;2023-02-15T16:01:52;19.23;;;8.25;;
55537;SDS011;41383;51.418;7.286;2023-02-15T16:04:27;16.75;;;8.35;;
55537;SDS011;41383;51.418;7.286;2023-02-15T16:06:55;20.17;;;9.20;;
55537;SDS011;41383;51.418;7.286;2023-02-15T16:09:22;17.13;;;8.80;;
55537;SDS011;41383;51.418;7.286;2023-02-15T16:11:50;15.23;;;9.32;;
55537;SDS011;41383;51.418;7.286;2023-02-15T16:14:27;16.40;;;8.50;;
55537;SDS011;41383;51.418;7.286;2023-02-15T16:16:56;15.52;;;7.72;;
55537;SDS011;41383;51.418;7.286;2023-02-15T16:19:26;18.55;;;9.90;;
55537;SDS011;41383;51.418;7.286;2023-02-15T16:21:54;17.65;;;9.45;;
55537;SDS011;41383;51.418;7.286;2023-02-15T16:30:19;18.10;;;7.97;;
55537;SDS011;41383;51.418;7.286;2023-02-15T16:33:06;23.42;;;11.57;;
55537;SDS011;41383;51.418;7.286;2023-02-15T16:35:32;14.43;;;8.98;;
55537;SDS011;41383;51.418;7.286;2023-02-15T16:37:58;21.90;;;9.35;;
55537;SDS011;41383;51.418;7.286;2023-02-15T16:42:57;18.25;;;8.55;;
55537;SDS011;41383;51.418;7.286;2023-02-15T16:45:27;16.77;;;8.48;;
55537;SDS011;41383;51.418;7.286;2023-02-15T16:47:57;17.45;;;10.00;;
55537;SDS011;41383;51.418;7.286;2023-02-15T16:50:28;32.08;;;10.98;;
55537;SDS011;41383;51.418;7.286;2023-02-15T16:52:58;18.75;;;8.57;;
55537;SDS011;41383;51.418;7.286;2023-02-15T16:55:25;18.70;;;10.32;;
55537;SDS011;41383;51.418;7.286;2023-02-15T16:57:56;20.02;;;9.82;;
55537;SDS011;41383;51.418;7.286;2023-02-15T17:00:26;22.63;;;11.63;;
55537;SDS011;41383;51.418;7.286;2023-02-15T17:02:59;19.42;;;10.27;;
55537;SDS011;41383;51.418;7.286;2023-02-15T17:05:48;16.15;;;9.23;;
55537;SDS011;41383;51.418;7.286;2023-02-15T17:08:41;20.40;;;10.13;;
55537;SDS011;41383;51.418;7.286;2023-02-15T17:11:21;18.80;;;10.57;;
55537;SDS011;41383;51.418;7.286;2023-02-15T17:16:33;18.25;;;10.45;;
55537;SDS011;41383;51.418;7.286;2023-02-15T17:19:17;22.20;;;11.77;;
55537;SDS011;41383;51.418;7.286;2023-02-15T17:21:50;19.20;;;10.95;;
55537;SDS011;41383;51.418;7.286;2023-02-15T17:24:19;20.80;;;9.75;;
55537;SDS011;41383;51.418;7.286;2023-02-15T17:26:51;25.58;;;10.98;;
55537;SDS011;41383;51.418;7.286;2023-02-15T17:29:36;20.50;;;9.77;;
55537;SDS011;41383;51.418;7.286;2023-02-15T17:32:03;21.15;;;11.43;;
55537;SDS011;41383;51.418;7.286;2023-02-15T17:37:59;25.83;;;12.15;;
55537;SDS011;41383;51.418;7.286;2023-02-15T17:40:01;29.15;;;14.52;;